Peabody, Kentucky
Current Conditions -  °F | °C
As of 9:53 PM on Saturday 22 Nov 2014 (Local Time) from KLOZ Reporting Station
Clear Clear  
Wind Chill: 50°   Ceiling: Unl
Heat Index: 50°   Visibility: 10mi
Dew Point: 30°   Wind: 5mph
Humidity: 46%   Direction: 190°S
Pressure: 30.15"   Gusts: NA
Location:  37.1553°N, 83.623°W
Report Text: KLOZ 230253Z AUTO 19004KT 10SM CLR 10/M01 A3015 RMK AO2 SLP210 T01001011 56009
Loading
Personal Weather Stations






























Interactive Weather Map New forecast layout! Learn more

10-Day Weather Forecast

Advertisements
Track Severe Weather on mobile